Stations météo

réclame
Mon MeteoGroup
Finningley, Grande-Bretagne (3360): Température de l'air & dewpoint: 08.08.2020 20:00:00 - 14.08.2020 20:00:00 (BST)Finningley, Grande-Bretagne (3360): Vitesse du vent: 08.08.2020 20:00:00 - 14.08.2020 20:00:00 (BST)Finningley, Grande-Bretagne (3360): Direction du vent: 08.08.2020 20:00:00 - 14.08.2020 20:00:00 (BST)Finningley, Grande-Bretagne (3360): visibility: 08.08.2020 20:00:00 - 14.08.2020 20:00:00 (BST)
Date & Time tt [°C] td [°C] ff [km/h] ff [knt] dd vv [km]
14.08.2020 20:00:00 18,0 14,0 15 8 NNE 10
14.08.2020 19:00:00 20,0 14,0 18 10 NE 10
14.08.2020 18:00:00 22,0 15,0 21 11 NE 10
14.08.2020 17:00:00 23,0 15,0 16 9 NE 10
14.08.2020 16:00:00 24,0 15,0 21 11 NE 10
14.08.2020 15:00:00 25,0 15,0 18 10 NNE 10
14.08.2020 14:00:00 24,0 16,0 16 9 N 10
14.08.2020 13:00:00 22,0 15,0 16 9 N 10
14.08.2020 12:00:00 20,0 15,0 21 11 N 10
14.08.2020 11:00:00 19,0 15,0 18 10 N 10
14.08.2020 10:00:00 18,0 15,0 21 11 N 10
14.08.2020 09:00:00 17,0 15,0 22 12 N 10
14.08.2020 08:00:00 16,0 14,0 18 10 N 10
14.08.2020 07:00:00 16,0 14,0 22 12 N 10
14.08.2020 06:00:00 16,0 14,0 18 10 N 10
14.08.2020 05:00:00 16,0 14,0 18 10 N 10
14.08.2020 04:00:00 16,0 15,0 21 11 N 10
14.08.2020 03:00:00 16,0 15,0 21 11 N 10
14.08.2020 02:00:00 16,0 15,0 18 10 N 10
14.08.2020 01:00:00 16,0 15,0 18 10 N 10
14.08.2020 00:00:00 17,0 15,0 21 11 N 10
13.08.2020 23:00:00 17,0 15,0 21 11 N 10
13.08.2020 22:00:00 17,0 15,0 24 13 N 10
13.08.2020 21:00:00 18,0 15,0 24 13 N 10
13.08.2020 20:00:00 19,0 15,0 22 12 N 10
13.08.2020 19:00:00 20,0 16,0 22 12 N 10
13.08.2020 18:00:00 21,0 16,0 24 13 N 10
13.08.2020 17:00:00 22,0 17,0 22 12 N 10
13.08.2020 16:00:00 22,0 17,0 21 11 N 10
13.08.2020 15:00:00 22,0 16,0 18 10 N 10
13.08.2020 14:00:00 21,0 16,0 18 10 N 10
13.08.2020 13:00:00 21,0 16,0 18 10 N 10
13.08.2020 12:00:00 20,0 16,0 21 11 N 10
13.08.2020 11:00:00 19,0 16,0 18 10 N 10
13.08.2020 10:00:00 17,0 15,0 21 11 N 10
13.08.2020 09:00:00 17,0 15,0 16 9 N 10
13.08.2020 08:00:00 17,0 16,0 16 9 NNW 6
13.08.2020 07:00:00 17,0 16,0 13 7 N 4,0
13.08.2020 06:00:00 16,0 16,0 15 8 NNW 3,5
13.08.2020 05:00:00 16,0 15,0 11 6 NNW 5
13.08.2020 04:00:00 17,0 16,0 11 6 NNW 9
13.08.2020 03:00:00 17,0 16,0 11 6 N 9
13.08.2020 02:00:00 17,0 16,0 11 6 N 9
13.08.2020 01:00:00 18,0 16,0 9 5 N 9
13.08.2020 00:00:00 19,0 17,0 5 3 SW 9
12.08.2020 23:00:00 19,0 17,0 8 4 ENE 10
12.08.2020 22:00:00 21,0 17,0 8 4 ENE 10
12.08.2020 21:00:00 23,0 17,0 9 5 NE 10
12.08.2020 20:00:00 25,0 17,0 11 6 ENE 10
12.08.2020 19:00:00 27,0 17,0 15 8 ENE 10
12.08.2020 18:00:00 29,0 17,0 13 7 E 10
12.08.2020 17:00:00 30,0 18,0 16 9 NE 10
12.08.2020 16:00:00 29,0 17,0 11 6 ENE 10
12.08.2020 15:00:00 29,0 17,0 13 7 ENE 10
12.08.2020 14:00:00 29,0 19,0 22 12 ENE 10
12.08.2020 13:00:00 30,0 18,0 9 5 ENE 10
12.08.2020 12:00:00 28,0 17,0 11 6 NE 10
12.08.2020 11:00:00 26,0 17,0 11 6 NNE 10
12.08.2020 10:00:00 23,0 18,0 8 4 N 9
12.08.2020 09:00:00 20,0 17,0 8 4 NNW 9
12.08.2020 08:00:00 19,0 17,0 9 5 WNW 8
12.08.2020 07:00:00 17,0 17,0 5 3 SW 5
12.08.2020 06:00:00 17,0 16,0 8 4 NW 5
12.08.2020 05:00:00 17,0 16,0 11 6 E 4,4
12.08.2020 04:00:00 18,0 16,0 5 3 NNE 5
12.08.2020 03:00:00 19,0 17,0 11 6 N 5
12.08.2020 02:00:00 18,0 17,0 8 4 WNW 5
12.08.2020 01:00:00 18,0 17,0 9 5 N 5
12.08.2020 00:00:00 18,0 16,0 5 3 N 6
11.08.2020 23:00:00 19,0 16,0 5 3 N 10
11.08.2020 22:00:00 21,0 17,0 5 3 NE 10
11.08.2020 21:00:00 23,0 17,0 9 5 ENE 10
11.08.2020 20:00:00 25,0 17,0 13 7 ENE 10
11.08.2020 19:00:00 28,0 18,0 13 7 ENE 10
11.08.2020 18:00:00 30,0 18,0 16 9 ENE 10
11.08.2020 17:00:00 31,0 17,0 13 7 E 10
11.08.2020 16:00:00 31,0 17,0 15 8 ESE 10
11.08.2020 15:00:00 30,0 18,0 11 6 E 10
11.08.2020 14:00:00 29,0 18,0 11 6 NE 10
11.08.2020 13:00:00 27,0 18,0 9 5 - 10
11.08.2020 12:00:00 24,0 18,0 11 6 NNE 10
11.08.2020 11:00:00 21,0 17,0 8 4 NNE 10
11.08.2020 10:00:00 19,0 16,0 9 5 NW 10
11.08.2020 09:00:00 18,0 17,0 5 3 - 8
11.08.2020 08:00:00 17,0 16,0 11 6 NNE 7
11.08.2020 07:00:00 16,0 15,0 15 8 N 7
11.08.2020 06:00:00 16,0 15,0 18 10 N 8
11.08.2020 05:00:00 16,0 15,0 18 10 N 7
11.08.2020 04:00:00 17,0 15,0 16 9 NNW 10
11.08.2020 03:00:00 17,0 16,0 13 7 N 6
11.08.2020 02:00:00 17,0 16,0 13 7 NNW 10
11.08.2020 01:00:00 17,0 16,0 11 6 N 10
11.08.2020 00:00:00 17,0 16,0 9 5 N 10
10.08.2020 23:00:00 18,0 16,0 13 7 NNE 10
10.08.2020 22:00:00 19,0 16,0 13 7 NNE 10
10.08.2020 21:00:00 20,0 16,0 13 7 N 10
10.08.2020 20:00:00 22,0 16,0 16 9 NNE 10
10.08.2020 19:00:00 24,0 17,0 18 10 NNE 10
10.08.2020 18:00:00 26,0 17,0 15 8 NE 10
10.08.2020 17:00:00 27,0 17,0 18 10 NNE 10
10.08.2020 16:00:00 27,0 17,0 18 10 NE 10
10.08.2020 15:00:00 26,0 16,0 16 9 NE 10
10.08.2020 14:00:00 26,0 15,0 16 9 NE 10
10.08.2020 13:00:00 25,0 15,0 18 10 NE 10
10.08.2020 12:00:00 24,0 15,0 18 10 NNE 10
10.08.2020 11:00:00 23,0 15,0 16 9 NNE 10
10.08.2020 10:00:00 20,0 15,0 16 9 N 10
10.08.2020 09:00:00 18,0 14,0 15 8 N 10
10.08.2020 08:00:00 16,0 14,0 15 8 N 10
10.08.2020 07:00:00 14,0 13,0 13 7 N 10
10.08.2020 06:00:00 14,0 13,0 11 6 NNW 10
10.08.2020 05:00:00 14,0 13,0 13 7 NNW 10
10.08.2020 04:00:00 15,0 14,0 11 6 NNW 10
10.08.2020 03:00:00 16,0 14,0 15 8 N 10
10.08.2020 02:00:00 16,0 14,0 15 8 N 10
10.08.2020 01:00:00 16,0 14,0 11 6 N 10
10.08.2020 00:00:00 16,0 14,0 13 7 N 10
09.08.2020 23:00:00 16,0 14,0 13 7 N 10
09.08.2020 22:00:00 17,0 14,0 15 8 NNE 10
09.08.2020 21:00:00 18,0 15,0 13 7 NE 10
09.08.2020 20:00:00 18,0 15,0 15 8 NE 10
09.08.2020 19:00:00 20,0 15,0 18 10 NNE 10
09.08.2020 18:00:00 21,0 15,0 15 8 NE 10
09.08.2020 17:00:00 21,0 15,0 18 10 NNE 10
09.08.2020 16:00:00 20,0 15,0 15 8 NE 10
09.08.2020 15:00:00 19,0 15,0 16 9 NE 10
09.08.2020 14:00:00 19,0 14,0 18 10 NNE 10
09.08.2020 13:00:00 18,0 14,0 21 11 NNE 10
09.08.2020 12:00:00 17,0 14,0 21 11 NNE 10
09.08.2020 11:00:00 17,0 14,0 16 9 NNE 10
09.08.2020 10:00:00 16,0 14,0 16 9 NNE 10
09.08.2020 09:00:00 16,0 14,0 16 9 NE 10
09.08.2020 08:00:00 15,0 14,0 21 11 NNE 10
09.08.2020 07:00:00 15,0 14,0 15 8 NNE 10
09.08.2020 06:00:00 14,0 14,0 16 9 N 6
09.08.2020 05:00:00 15,0 14,0 15 8 N 9
09.08.2020 04:00:00 15,0 14,0 18 10 NNE 10
09.08.2020 03:00:00 15,0 13,0 18 10 NNE 10
09.08.2020 02:00:00 15,0 13,0 21 11 NNE 10
09.08.2020 01:00:00 15,0 13,0 18 10 N 10
09.08.2020 00:00:00 15,0 13,0 18 10 N 10
08.08.2020 23:00:00 15,0 13,0 21 11 N 10
08.08.2020 22:00:00 15,0 13,0 18 10 NNE 10
08.08.2020 21:00:00 16,0 13,0 18 10 NNE 10
08.08.2020 20:00:00 18,0 13,0 16 9 NNE 10

tt = Température de l'air
td = dewpoint
ff = Vitesse du vent
dd = Direction du vent
vv = visibility

stations d'obs. à proximité